Time;durP1;ratioP1;P1;durP2;ratioP2;P2;SDS_P1;SDS_P2;PMS_P1;PMS_P2;Temp;Humidity;BMP_temperature;BMP_pressure;BME280_temperature;BME280_humidity;BME280_pressure;Samples;Min_cycle;Max_cycle;Signal;HPM_P1;HPM_P2
2021/04/17 00:01:45;;;;;;;3.97;2.40;;;6.60;99.90;;;;;;5072451;28;20234;-80
2021/04/17 00:04:13;;;;;;;6.07;2.40;;;6.70;99.90;;;;;;5073417;28;20732;-80
2021/04/17 00:06:39;;;;;;;2.93;2.50;;;6.70;99.90;;;;;;5072443;28;20207;-81
2021/04/17 00:09:08;;;;;;;3.37;3.03;;;6.60;99.90;;;;;;5073346;28;20206;-79
2021/04/17 00:11:36;;;;;;;4.87;3.10;;;6.50;99.90;;;;;;5072963;28;20256;-82
2021/04/17 00:14:03;;;;;;;6.33;2.37;;;6.70;99.90;;;;;;5073311;28;20210;-79
2021/04/17 00:16:30;;;;;;;3.03;2.20;;;6.60;99.90;;;;;;5072775;28;20202;-78
2021/04/17 00:18:56;;;;;;;3.63;1.93;;;6.50;99.90;;;;;;5073178;28;20283;-77
2021/04/17 00:21:23;;;;;;;5.63;2.50;;;6.40;99.90;;;;;;5058807;28;20237;-76
2021/04/17 00:23:50;;;;;;;2.83;2.40;;;6.30;99.90;;;;;;5073182;28;20206;-73
2021/04/17 00:26:17;;;;;;;2.80;2.60;;;6.30;99.90;;;;;;5072943;28;20267;-81
2021/04/17 00:28:44;;;;;;;2.73;2.50;;;6.20;99.90;;;;;;5072156;28;20210;-79
2021/04/17 00:31:10;;;;;;;2.87;1.80;;;6.30;99.90;;;;;;5072818;28;20260;-79
2021/04/17 00:33:37;;;;;;;4.13;2.13;;;6.20;99.90;;;;;;5072607;28;20203;-79
2021/04/17 00:36:04;;;;;;;2.73;2.33;;;6.30;99.90;;;;;;5072187;28;20260;-78
2021/04/17 00:38:30;;;;;;;2.23;2.03;;;6.20;99.90;;;;;;5072521;28;20206;-75
2021/04/17 00:40:58;;;;;;;4.00;2.13;;;6.30;99.90;;;;;;5072349;28;20210;-81
2021/04/17 00:43:26;;;;;;;4.00;2.17;;;6.30;99.90;;;;;;5071967;28;20202;-75
2021/04/17 00:45:53;;;;;;;3.47;2.30;;;6.30;99.90;;;;;;5072507;28;20686;-75
2021/04/17 00:48:20;;;;;;;2.70;2.50;;;6.20;99.90;;;;;;5072572;28;20213;-81
2021/04/17 00:50:47;;;;;;;2.67;2.20;;;6.20;99.90;;;;;;5071723;28;20693;-78
2021/04/17 00:53:13;;;;;;;2.53;2.13;;;6.30;99.90;;;;;;5072021;28;20210;-79
2021/04/17 00:55:40;;;;;;;3.30;2.13;;;6.30;99.90;;;;;;5072008;28;20582;-81
2021/04/17 00:58:07;;;;;;;3.97;2.67;;;6.20;99.90;;;;;;5072214;28;20206;-78
2021/04/17 01:00:36;;;;;;;2.63;2.43;;;6.20;99.90;;;;;;5072127;28;20206;-80
2021/04/17 01:03:11;;;;;;;2.13;1.93;;;6.20;99.90;;;;;;5071989;28;20230;-81
2021/04/17 01:05:40;;;;;;;3.20;1.83;;;6.20;99.90;;;;;;5071873;28;20216;-81
2021/04/17 01:08:19;;;;;;;2.90;2.20;;;6.20;99.90;;;;;;5072440;28;20642;-76
2021/04/17 01:10:53;;;;;;;3.50;1.53;;;6.20;99.90;;;;;;5071930;28;20224;-82
2021/04/17 01:13:21;;;;;;;2.43;1.93;;;6.30;99.90;;;;;;5072697;28;20213;-80
2021/04/17 01:15:49;;;;;;;2.70;2.10;;;6.30;99.90;;;;;;5071835;28;20217;-78
2021/04/17 01:18:17;;;;;;;2.50;2.30;;;6.40;99.90;;;;;;5072169;28;20210;-79
2021/04/17 01:20:46;;;;;;;3.33;2.10;;;6.60;99.90;;;;;;5071304;28;20999;-82
2021/04/17 01:23:19;;;;;;;3.20;2.37;;;6.60;99.90;;;;;;5071795;28;20781;-80
2021/04/17 01:25:53;;;;;;;3.03;2.33;;;6.60;99.90;;;;;;5071061;28;20209;-77
2021/04/17 01:28:23;;;;;;;3.10;2.33;;;6.60;99.90;;;;;;5072125;28;20590;-78
2021/04/17 01:30:52;;;;;;;2.30;1.90;;;6.50;99.90;;;;;;5072194;28;20634;-80
2021/04/17 01:33:20;;;;;;;2.03;1.83;;;6.50;99.90;;;;;;5071620;28;20573;-77
2021/04/17 01:35:49;;;;;;;3.17;2.87;;;6.50;99.90;;;;;;5071384;28;20210;-80
2021/04/17 01:38:21;;;;;;;2.23;2.03;;;6.50;99.90;;;;;;5071522;28;20292;-79
2021/04/17 01:40:49;;;;;;;2.63;2.23;;;6.40;99.90;;;;;;5071600;28;20213;-81
2021/04/17 01:43:17;;;;;;;3.67;2.50;;;6.40;99.90;;;;;;5071177;28;20258;-82
2021/04/17 01:45:46;;;;;;;2.33;2.10;;;6.40;99.90;;;;;;5071749;28;20267;-78
2021/04/17 01:48:14;;;;;;;3.83;2.03;;;6.30;99.90;;;;;;5071047;28;20594;-73
2021/04/17 01:50:42;;;;;;;3.93;2.53;;;6.20;99.90;;;;;;5068736;28;20205;-79
2021/04/17 01:53:12;;;;;;;3.80;2.27;;;6.20;99.90;;;;;;5071607;28;20209;-75
2021/04/17 01:55:39;;;;;;;2.43;2.00;;;6.50;99.90;;;;;;5070582;28;20205;-79
2021/04/17 01:58:07;;;;;;;4.13;2.20;;;6.30;99.90;;;;;;5071249;28;20293;-77
2021/04/17 02:00:35;;;;;;;2.40;2.20;;;7.00;99.90;;;;;;5070569;28;20206;-79
2021/04/17 02:03:02;;;;;;;2.17;1.80;;;6.20;99.90;;;;;;5071063;28;20234;-85
2021/04/17 02:05:28;;;;;;;2.20;2.00;;;6.20;99.90;;;;;;5070377;28;20198;-80
2021/04/17 02:07:57;;;;;;;4.43;2.27;;;6.20;99.90;;;;;;5070866;28;20202;-76
2021/04/17 02:10:24;;;;;;;2.27;1.93;;;6.20;99.90;;;;;;5069894;28;20202;-76
2021/04/17 02:12:51;;;;;;;3.40;2.23;;;6.10;99.90;;;;;;5071164;28;20202;-78
2021/04/17 02:15:17;;;;;;;2.57;2.17;;;6.10;99.90;;;;;;5070790;28;20621;-78
2021/04/17 02:17:51;;;;;;;2.87;2.33;;;6.10;99.90;;;;;;5070530;28;20271;-77
2021/04/17 02:20:27;;;;;;;3.83;1.93;;;6.00;99.90;;;;;;5071092;28;20666;-76
2021/04/17 02:22:55;;;;;;;2.13;1.93;;;5.90;99.90;;;;;;5070816;28;20237;-75
2021/04/17 02:25:22;;;;;;;2.80;2.47;;;;;;;;;;5070575;28;20727;-77
2021/04/17 02:27:48;;;;;;;3.83;1.97;;;5.90;99.90;;;;;;5071085;28;20233;-77
2021/04/17 02:30:16;;;;;;;3.00;2.70;;;5.80;99.90;;;;;;5071245;28;20267;-77
2021/04/17 02:32:43;;;;;;;2.90;2.30;;;6.10;99.90;;;;;;5069943;28;20707;-76
2021/04/17 02:35:12;;;;;;;2.73;2.37;;;5.20;99.90;;;;;;5070611;28;20217;-75
2021/04/17 02:37:38;;;;;;;2.50;2.20;;;5.80;99.90;;;;;;5070022;28;20206;-76
2021/04/17 02:40:06;;;;;;;2.60;2.40;;;6.20;99.90;;;;;;5070283;28;20206;-76
2021/04/17 02:42:32;;;;;;;4.90;1.90;;;6.00;99.90;;;;;;5069986;28;20250;-75
2021/04/17 02:44:59;;;;;;;6.20;2.87;;;5.50;99.90;;;;;;5070749;28;20206;-75
2021/04/17 02:47:26;;;;;;;2.47;2.20;;;5.30;99.90;;;;;;5069976;28;20267;-75
2021/04/17 02:49:52;;;;;;;2.73;2.27;;;5.40;99.90;;;;;;5070281;28;20209;-75
2021/04/17 02:52:19;;;;;;;4.27;2.70;;;5.40;99.90;;;;;;5070950;28;20210;-76
2021/04/17 02:54:46;;;;;;;4.80;3.00;;;5.50;99.90;;;;;;5069867;28;20202;-76
2021/04/17 02:57:12;;;;;;;6.17;3.10;;;5.40;99.90;;;;;;5070473;28;20758;-76
2021/04/17 02:59:39;;;;;;;4.03;2.73;;;5.40;99.90;;;;;;5069543;28;20678;-76
2021/04/17 03:02:05;;;;;;;3.87;2.50;;;5.20;99.90;;;;;;5070188;28;20233;-77
2021/04/17 03:04:32;;;;;;;3.13;2.33;;;5.30;99.90;;;;;;5069772;28;20666;-77
2021/04/17 03:06:58;;;;;;;3.10;2.53;;;5.40;99.90;;;;;;5070212;28;20564;-75
2021/04/17 03:09:26;;;;;;;4.23;2.80;;;5.10;99.90;;;;;;5070259;28;20240;-75
2021/04/17 03:11:52;;;;;;;4.17;2.47;;;5.10;99.90;;;;;;5070170;28;20218;-75
2021/04/17 03:14:18;;;;;;;3.63;2.50;;;5.10;99.90;;;;;;5071048;28;20209;-77
2021/04/17 03:16:45;;;;;;;2.53;2.33;;;;;;;;;;5069541;28;20206;-76
2021/04/17 03:19:12;;;;;;;2.77;2.40;;;4.50;99.90;;;;;;5070070;28;20221;-76
2021/04/17 03:21:38;;;;;;;3.47;2.70;;;5.50;99.90;;;;;;5070968;28;20774;-76
2021/04/17 03:24:06;;;;;;;3.03;2.33;;;5.50;99.90;;;;;;5074069;28;20202;-77
2021/04/17 03:26:33;;;;;;;5.80;2.70;;;6.00;99.90;;;;;;5073828;28;20206;-78
2021/04/17 03:29:00;;;;;;;2.63;2.40;;;5.00;99.90;;;;;;5073741;28;20202;-79
2021/04/17 03:31:26;;;;;;;3.63;2.73;;;4.80;99.90;;;;;;5073411;28;20202;-79
2021/04/17 03:33:53;;;;;;;3.17;2.73;;;4.90;99.90;;;;;;5073808;28;20210;-77
2021/04/17 03:36:19;;;;;;;4.53;2.87;;;4.90;99.90;;;;;;5073976;28;20625;-77
2021/04/17 03:38:46;;;;;;;2.97;2.77;;;4.80;99.90;;;;;;5073415;28;20202;-77
2021/04/17 03:41:12;;;;;;;3.37;3.07;;;4.80;99.90;;;;;;5073957;28;20233;-78
2021/04/17 03:43:39;;;;;;;2.73;2.13;;;4.70;99.90;;;;;;5073297;28;20264;-78
2021/04/17 03:46:06;;;;;;;4.63;2.43;;;4.70;99.90;;;;;;5073200;28;20206;-79
2021/04/17 03:48:33;;;;;;;3.23;2.93;;;4.60;99.90;;;;;;5072959;28;20759;-77
2021/04/17 03:50:59;;;;;;;5.70;2.97;;;4.60;99.90;;;;;;5072281;28;20552;-78
2021/04/17 03:53:26;;;;;;;4.20;2.87;;;4.60;99.90;;;;;;5062670;28;20225;-78
2021/04/17 03:55:52;;;;;;;3.73;3.20;;;4.60;99.90;;;;;;5073452;28;20225;-77
2021/04/17 03:58:19;;;;;;;4.10;2.77;;;4.50;99.90;;;;;;5073830;28;20686;-78
2021/04/17 04:00:46;;;;;;;2.40;2.17;;;4.50;99.90;;;;;;5072853;28;20213;-78
2021/04/17 04:03:12;;;;;;;4.03;2.93;;;4.60;99.90;;;;;;5072838;28;20230;-79
2021/04/17 04:05:39;;;;;;;5.60;3.50;;;4.50;99.90;;;;;;5068441;28;20199;-77
2021/04/17 04:08:06;;;;;;;3.10;2.80;;;4.50;99.90;;;;;;5070778;28;20202;-77
2021/04/17 04:10:33;;;;;;;3.97;3.30;;;4.40;99.90;;;;;;5072662;28;20705;-75
2021/04/17 04:12:59;;;;;;;4.23;3.40;;;4.40;99.90;;;;;;5072919;28;20697;-77
2021/04/17 04:15:26;;;;;;;3.53;3.23;;;4.40;99.90;;;;;;5072669;28;20695;-76
2021/04/17 04:17:53;;;;;;;3.93;3.00;;;4.40;99.90;;;;;;5072839;28;20231;-77
2021/04/17 04:20:20;;;;;;;5.87;3.10;;;4.40;99.90;;;;;;5073347;28;20209;-76
2021/04/17 04:22:46;;;;;;;5.27;3.17;;;4.40;99.90;;;;;;5072802;28;20234;-77
2021/04/17 04:25:13;;;;;;;5.70;3.10;;;4.30;99.90;;;;;;5072914;28;20214;-78
2021/04/17 04:27:40;;;;;;;4.43;3.67;;;4.30;99.90;;;;;;5072594;28;20210;-77
2021/04/17 04:30:09;;;;;;;7.43;3.90;;;4.30;99.90;;;;;;5072790;28;20271;-77
2021/04/17 04:32:36;;;;;;;3.20;2.83;;;4.30;99.90;;;;;;5071627;28;20205;-77
2021/04/17 04:35:05;;;;;;;3.33;2.83;;;4.50;99.90;;;;;;5073026;28;20685;-78
2021/04/17 04:37:31;;;;;;;4.27;3.37;;;4.50;99.90;;;;;;5072316;28;20210;-78
2021/04/17 04:39:58;;;;;;;5.17;3.50;;;4.50;99.90;;;;;;5072659;28;20206;-76
2021/04/17 04:42:24;;;;;;;6.93;3.43;;;4.80;99.90;;;;;;5072021;28;20226;-76
2021/04/17 04:44:51;;;;;;;4.90;4.10;;;4.70;99.90;;;;;;5072819;28;20669;-76
2021/04/17 04:47:18;;;;;;;5.03;3.70;;;4.60;99.90;;;;;;5072714;28;20210;-77
2021/04/17 04:49:44;;;;;;;5.93;4.07;;;4.50;99.90;;;;;;5072457;28;20225;-79
2021/04/17 04:52:11;;;;;;;3.97;3.23;;;4.40;99.90;;;;;;5072674;28;20328;-78
2021/04/17 04:54:38;;;;;;;3.90;3.17;;;4.40;99.90;;;;;;5071754;28;20210;-79
2021/04/17 04:57:05;;;;;;;5.30;3.27;;;4.30;99.90;;;;;;5071953;28;20233;-78
2021/04/17 04:59:31;;;;;;;5.83;4.30;;;4.30;99.90;;;;;;5071533;28;20202;-78
2021/04/17 05:01:58;;;;;;;4.03;3.03;;;4.40;99.90;;;;;;5071859;28;20229;-79
2021/04/17 05:04:24;;;;;;;7.03;3.20;;;4.50;99.90;;;;;;5073891;28;20202;-80
2021/04/17 05:06:51;;;;;;;9.73;3.77;;;4.40;99.90;;;;;;5073078;28;20203;-81
2021/04/17 05:09:18;;;;;;;3.90;3.03;;;4.30;99.90;;;;;;5072530;28;20206;-82
2021/04/17 05:11:45;;;;;;;4.37;3.60;;;4.50;99.90;;;;;;5071624;28;20257;-81
2021/04/17 05:14:12;;;;;;;5.03;3.67;;;4.50;99.90;;;;;;5072155;28;20214;-77
2021/04/17 05:16:38;;;;;;;3.60;3.30;;;4.40;99.90;;;;;;5071729;28;20213;-78
2021/04/17 05:19:05;;;;;;;5.57;4.30;;;4.40;99.90;;;;;;5072101;28;20206;-78
2021/04/17 05:21:31;;;;;;;3.33;3.03;;;4.30;99.90;;;;;;5071684;28;20259;-77
2021/04/17 05:23:59;;;;;;;6.47;3.97;;;4.30;99.90;;;;;;5071490;28;20272;-77
2021/04/17 05:26:27;;;;;;;5.00;3.00;;;4.20;99.90;;;;;;5071233;28;20222;-77
2021/04/17 05:28:53;;;;;;;5.80;3.90;;;4.30;99.90;;;;;;5071290;28;20214;-78
2021/04/17 05:31:20;;;;;;;4.60;3.77;;;4.20;99.90;;;;;;5071865;28;20213;-77
2021/04/17 05:33:47;;;;;;;6.67;4.17;;;;;;;;;;5071007;28;20221;-77
2021/04/17 05:36:13;;;;;;;4.90;4.40;;;4.20;99.90;;;;;;5071700;28;20206;-77
2021/04/17 05:38:39;;;;;;;5.73;4.37;;;4.00;99.90;;;;;;5071230;28;20213;-77
2021/04/17 05:41:06;;;;;;;5.67;3.77;;;4.10;99.90;;;;;;5070832;28;20206;-80
2021/04/17 05:43:33;;;;;;;4.67;4.13;;;4.20;99.90;;;;;;5070362;28;20238;-79
2021/04/17 05:46:00;;;;;;;6.97;4.17;;;3.30;99.90;;;;;;5070910;28;20701;-81
2021/04/17 05:48:26;;;;;;;4.33;3.40;;;4.50;99.90;;;;;;5070830;28;20223;-79
2021/04/17 05:50:53;;;;;;;4.90;3.97;;;4.20;99.90;;;;;;5071477;28;20764;-79
2021/04/17 05:53:19;;;;;;;5.93;4.37;;;4.40;99.90;;;;;;5069940;28;20206;-76
2021/04/17 05:55:45;;;;;;;7.63;5.37;;;4.30;99.90;;;;;;5070417;28;20214;-76
2021/04/17 05:58:12;;;;;;;5.97;4.50;;;4.40;99.90;;;;;;5071329;28;20627;-76
2021/04/17 06:00:39;;;;;;;5.97;3.87;;;3.80;99.90;;;;;;5070965;28;20206;-77
2021/04/17 06:03:07;;;;;;;5.00;4.30;;;4.50;99.90;;;;;;5070698;28;20666;-77
2021/04/17 06:05:33;;;;;;;6.33;4.73;;;4.40;99.90;;;;;;5071031;28;20206;-81
2021/04/17 06:08:00;;;;;;;9.00;3.80;;;4.50;99.90;;;;;;5071097;28;20285;-82
2021/04/17 06:10:26;;;;;;;4.47;3.80;;;4.50;99.90;;;;;;5070227;28;20673;-80
2021/04/17 06:12:52;;;;;;;6.37;4.43;;;4.60;99.90;;;;;;5071678;28;20669;-79
2021/04/17 06:15:19;;;;;;;5.47;4.70;;;4.60;99.90;;;;;;5071542;28;20581;-81
2021/04/17 06:17:46;;;;;;;7.53;5.00;;;4.60;99.90;;;;;;5071222;28;20202;-81
2021/04/17 06:20:13;;;;;;;5.27;4.63;;;4.60;99.90;;;;;;5072261;28;20700;-77
2021/04/17 06:22:40;;;;;;;7.43;4.73;;;4.70;99.90;;;;;;5071217;28;20716;-81
2021/04/17 06:25:08;;;;;;;7.13;5.57;;;4.60;99.90;;;;;;5070168;28;20210;-80
2021/04/17 06:27:34;;;;;;;5.23;4.70;;;4.70;99.90;;;;;;5055894;28;20582;-78
2021/04/17 06:30:01;;;;;;;5.70;4.93;;;4.70;99.90;;;;;;5063130;28;20210;-79
2021/04/17 06:32:27;;;;;;;5.37;4.80;;;4.80;99.90;;;;;;5070547;28;20202;-76
2021/04/17 06:34:55;;;;;;;7.60;5.20;;;4.90;99.90;;;;;;5070579;28;20579;-73
2021/04/17 06:37:21;;;;;;;5.93;4.70;;;4.90;99.90;;;;;;5070304;28;20678;-78
2021/04/17 06:39:48;;;;;;;6.03;4.97;;;5.00;99.90;;;;;;5062548;28;20214;-77
2021/04/17 06:42:19;;;;;;;5.30;4.80;;;5.10;99.90;;;;;;5064745;28;20222;-76
2021/04/17 06:44:45;;;;;;;6.10;4.60;;;5.10;99.90;;;;;;5069879;28;20205;-75
2021/04/17 06:47:14;;;;;;;10.03;5.27;;;5.10;99.90;;;;;;5067743;28;20214;-73
2021/04/17 06:49:42;;;;;;;6.27;5.67;;;5.30;99.90;;;;;;5069883;28;20206;-73
2021/04/17 06:52:10;;;;;;;6.60;5.93;;;5.30;99.90;;;;;;5070016;28;20221;-75
2021/04/17 06:54:38;;;;;;;5.20;4.70;;;5.30;99.90;;;;;;5069579;28;20662;-75
2021/04/17 06:57:04;;;;;;;7.70;5.30;;;5.40;99.90;;;;;;5076377;28;20212;-73
2021/04/17 06:59:32;;;;;;;5.67;5.17;;;5.50;99.90;;;;;;5076612;28;20206;-73
2021/04/17 07:01:58;;;;;;;5.70;4.83;;;5.60;99.90;;;;;;5076613;28;20229;-74
2021/04/17 07:04:25;;;;;;;6.00;5.10;;;5.60;99.90;;;;;;5076656;28;20210;-74
2021/04/17 07:06:51;;;;;;;6.80;5.70;;;5.70;99.90;;;;;;5074848;28;20208;-73
2021/04/17 07:09:21;;;;;;;7.13;5.47;;;5.70;99.90;;;;;;5073580;28;20206;-71
2021/04/17 07:11:47;;;;;;;7.23;5.90;;;5.80;99.90;;;;;;5076694;28;20285;-72
2021/04/17 07:14:15;;;;;;;13.73;6.03;;;6.00;99.90;;;;;;5076570;28;20236;-74
2021/04/17 07:16:59;;;;;;;8.07;6.57;;;6.10;99.90;;;;;;5076113;28;20205;-72
2021/04/17 07:19:45;;;;;;;6.97;5.83;;;6.20;99.90;;;;;;5075763;28;20296;-76
2021/04/17 07:22:16;;;;;;;6.67;5.80;;;6.10;99.90;;;;;;5076283;28;20248;-74
2021/04/17 07:24:44;;;;;;;6.10;5.50;;;6.10;99.90;;;;;;5069843;28;20213;-74
2021/04/17 07:27:29;;;;;;;8.33;6.03;;;6.20;99.90;;;;;;5072844;28;20206;-75
2021/04/17 07:29:55;;;;;;;6.33;5.37;;;6.20;99.90;;;;;;5073842;28;20206;-73
2021/04/17 07:32:22;;;;;;;7.00;5.60;;;6.10;99.90;;;;;;5076234;28;20670;-74
2021/04/17 07:35:08;;;;;;;7.77;6.80;;;6.30;99.90;;;;;;5077044;28;20210;-73
2021/04/17 07:37:35;;;;;;;7.03;6.27;;;6.60;99.90;;;;;;5075551;28;20216;-73
2021/04/17 07:40:23;;;;;;;7.27;6.00;;;6.70;99.90;;;;;;5076496;28;20206;-73
2021/04/17 07:42:53;;;;;;;6.33;5.37;;;6.60;99.90;;;;;;5070891;28;20283;-76
2021/04/17 07:45:23;;;;;;;7.10;6.40;;;6.60;99.90;;;;;;5077062;28;20206;-74
2021/04/17 07:47:50;;;;;;;7.07;5.53;;;6.80;99.90;;;;;;5076461;28;20214;-74
2021/04/17 07:50:18;;;;;;;8.17;5.77;;;7.10;99.90;;;;;;5076560;28;20270;-74
2021/04/17 07:52:45;;;;;;;8.60;6.70;;;7.10;99.90;;;;;;5075716;28;20206;-75
2021/04/17 07:55:13;;;;;;;6.23;5.63;;;7.20;99.90;;;;;;5061284;28;20569;-77
2021/04/17 07:57:44;;;;;;;7.53;6.03;;;7.00;99.90;;;;;;5073781;28;20630;-77
2021/04/17 08:00:13;;;;;;;5.93;5.33;;;7.20;99.90;;;;;;5073513;28;20213;-75
2021/04/17 08:02:41;;;;;;;7.70;5.97;;;7.20;99.90;;;;;;5074030;28;20233;-74
2021/04/17 08:05:10;;;;;;;7.00;6.30;;;7.60;99.90;;;;;;5075721;28;20633;-73
2021/04/17 08:07:36;;;;;;;6.20;5.40;;;7.60;99.90;;;;;;5073169;28;20202;-74
2021/04/17 08:10:06;;;;;;;6.67;6.03;;;7.70;99.90;;;;;;5072684;28;20217;-75
2021/04/17 08:12:34;;;;;;;7.00;6.30;;;7.90;99.90;;;;;;5068457;28;20203;-71
2021/04/17 08:15:02;;;;;;;8.00;6.37;;;8.20;99.90;;;;;;5071510;28;20202;-73
2021/04/17 08:17:29;;;;;;;7.93;6.00;;;8.20;99.90;;;;;;5072040;28;20203;-75
2021/04/17 08:19:57;;;;;;;8.00;6.00;;;8.20;99.90;;;;;;5070539;28;20205;-73
2021/04/17 08:22:25;;;;;;;8.27;6.77;;;8.30;99.90;;;;;;5071942;28;20313;-75
2021/04/17 08:24:52;;;;;;;7.07;5.70;;;8.20;99.90;;;;;;5071448;28;20214;-74
2021/04/17 08:27:20;;;;;;;8.20;6.70;;;8.40;99.90;;;;;;5072310;28;20213;-74
2021/04/17 08:29:49;;;;;;;8.93;6.77;;;8.70;99.90;;;;;;5072048;28;20206;-73
2021/04/17 08:32:33;;;;;;;6.53;5.93;;;8.90;99.90;;;;;;5072555;28;20279;-74
2021/04/17 08:35:06;;;;;;;6.73;6.13;;;9.90;99.90;;;;;;5072305;28;20213;-75
2021/04/17 08:37:33;;;;;;;6.57;5.93;;;10.90;99.90;;;;;;5072060;28;20198;-73
2021/04/17 08:40:00;;;;;;;9.37;5.70;;;9.80;99.90;;;;;;5070638;28;20206;-75
2021/04/17 08:42:44;;;;;;;6.47;5.87;;;9.80;99.90;;;;;;5066757;28;20245;-74
2021/04/17 08:45:13;;;;;;;7.23;6.40;;;9.80;99.90;;;;;;5072190;28;20583;-76
2021/04/17 08:47:50;;;;;;;7.53;6.07;;;9.60;99.90;;;;;;5071789;28;20218;-74
2021/04/17 08:50:29;;;;;;;7.80;7.00;;;9.60;99.90;;;;;;5072045;28;20205;-75
2021/04/17 08:52:58;;;;;;;6.60;5.90;;;9.30;99.90;;;;;;5071590;28;20202;-75
2021/04/17 08:55:26;;;;;;;7.63;6.20;;;9.80;99.90;;;;;;5070171;28;20207;-73
2021/04/17 08:58:11;;;;;;;5.93;5.43;;;11.00;99.90;;;;;;5072091;28;20678;-73
2021/04/17 09:00:38;;;;;;;7.00;5.87;;;10.70;99.90;;;;;;5060061;28;20674;-74
2021/04/17 09:03:06;;;;;;;10.07;5.83;;;10.60;99.90;;;;;;5069301;28;20230;-73
2021/04/17 09:05:47;;;;;;;5.93;5.33;;;10.20;99.90;;;;;;5071478;28;20209;-74
2021/04/17 09:08:15;;;;;;;6.43;5.50;;;11.40;99.90;;;;;;5069805;28;20214;-74
2021/04/17 09:10:42;;;;;;;7.33;6.50;;;11.40;99.90;;;;;;5070884;28;20198;-74
2021/04/17 09:13:42;;;;;;;6.83;6.23;;;10.90;99.90;;;;;;5071587;28;20206;-73
2021/04/17 09:16:09;;;;;;;6.67;6.03;;;10.80;99.90;;;;;;5049825;28;20221;-73
2021/04/17 09:18:46;;;;;;;6.07;5.47;;;10.70;99.90;;;;;;5047950;28;20211;-76
2021/04/17 09:21:35;;;;;;;5.90;5.40;;;10.80;99.90;;;;;;5061290;28;20210;-73
2021/04/17 09:24:04;;;;;;;5.80;5.33;;;10.50;99.90;;;;;;5069340;28;20238;-75
2021/04/17 09:26:41;;;;;;;5.53;5.03;;;11.20;99.90;;;;;;5063396;28;20210;-74
2021/04/17 09:29:24;;;;;;;7.27;5.83;;;11.20;99.90;;;;;;5071156;28;20205;-76
2021/04/17 09:31:52;;;;;;;7.20;5.78;;;11.80;99.90;;;;;;5070502;28;20202;-75
2021/04/17 09:34:20;;;;;;;7.75;6.28;;;12.00;99.90;;;;;;5071743;28;20202;-78
2021/04/17 09:36:49;;;;;;;5.75;5.25;;;12.40;99.90;;;;;;5061211;28;20671;-73
2021/04/17 09:39:28;;;;;;;5.80;5.28;;;12.50;99.90;;;;;;5069379;28;20648;-75
2021/04/17 09:41:56;;;;;;;6.10;5.38;;;14.90;99.90;;;;;;5071071;28;20629;-75
2021/04/17 09:44:23;;;;;;;5.72;5.10;;;16.40;99.90;;;;;;5071390;28;20289;-75
2021/04/17 09:47:05;;;;;;;5.32;4.82;;;15.90;99.90;;;;;;5071374;28;20274;-75
2021/04/17 09:49:41;;;;;;;5.95;5.22;;;18.50;99.90;;;;;;5070583;28;20339;-75
2021/04/17 09:52:08;;;;;;;6.05;5.65;;;19.60;99.90;;;;;;5071592;28;20209;-76
2021/04/17 09:54:35;;;;;;;5.57;5.18;;;19.80;99.90;;;;;;5070851;28;20202;-76
2021/04/17 09:57:07;;;;;;;4.88;4.50;;;19.70;99.90;;;;;;5069047;28;20632;-74
2021/04/17 09:59:34;;;;;;;6.35;5.35;;;21.50;99.90;;;;;;5067968;28;20267;-75
2021/04/17 10:02:01;;;;;;;5.43;4.93;;;21.20;99.90;;;;;;5069307;28;20201;-75
2021/04/17 10:04:57;;;;;;;5.07;4.68;;;21.40;99.90;;;;;;5070707;28;20628;-74
2021/04/17 10:07:23;;;;;;;5.85;5.32;;;21.60;99.90;;;;;;5061096;28;20688;-73
2021/04/17 10:10:04;;;;;;;5.38;4.88;;;21.90;99.90;;;;;;5070890;28;20213;-74
2021/04/17 10:12:30;;;;;;;5.30;4.88;;;22.20;99.90;;;;;;5061868;28;20212;-73
2021/04/17 10:15:22;;;;;;;5.20;4.80;;;19.60;99.90;;;;;;5065169;28;20240;-74
2021/04/17 10:17:51;;;;;;;4.72;4.18;;;20.10;99.90;;;;;;5062044;28;20632;-81
2021/04/17 10:20:19;;;;;;;4.28;3.88;;;21.20;99.90;;;;;;5066431;28;20211;-77
2021/04/17 10:22:52;;;;;;;7.03;4.88;;;20.70;99.70;;;;;;5070331;28;20229;-76
2021/04/17 10:25:38;;;;;;;13.20;4.40;;;20.50;99.70;;;;;;5067629;28;20596;-78
2021/04/17 10:28:15;;;;;;;4.55;4.15;;;19.70;99.60;;;;;;5068103;28;20218;-76
2021/04/17 10:30:43;;;;;;;4.90;4.43;;;20.10;99.20;;;;;;5069174;28;20206;-78
2021/04/17 10:33:14;;;;;;;6.45;4.60;;;12.50;99.90;;;;;;5069270;28;20260;-76
2021/04/17 10:35:41;;;;;;;4.47;4.07;;;13.40;99.90;;;;;;5069622;28;20563;-74
2021/04/17 10:38:08;;;;;;;5.10;4.60;;;12.50;99.90;;;;;;5068257;28;20264;-76
2021/04/17 10:40:34;;;;;;;6.10;5.50;;;12.40;99.90;;;;;;5069898;28;20210;-75
2021/04/17 10:43:04;;;;;;;5.68;5.18;;;12.30;99.90;;;;;;5070486;28;20233;-75
2021/04/17 10:45:40;;;;;;;14.45;9.57;;;11.50;99.90;;;;;;5069962;28;20216;-76
2021/04/17 10:48:09;;;;;;;7.32;6.00;;;12.10;99.90;;;;;;5068857;28;20217;-74
2021/04/17 10:50:38;;;;;;;4.43;4.03;;;13.00;99.90;;;;;;5065387;28;20213;-74
2021/04/17 10:53:07;;;;;;;7.35;4.60;;;12.60;99.90;;;;;;5070284;28;20237;-73
2021/04/17 10:55:39;;;;;;;6.47;4.18;;;13.30;99.90;;;;;;5070035;28;20210;-75
2021/04/17 10:58:07;;;;;;;5.15;4.65;;;13.40;99.90;;;;;;5069969;28;20206;-74
2021/04/17 11:00:35;;;;;;;5.57;4.40;;;12.30;99.90;;;;;;5069769;28;20210;-75
2021/04/17 11:03:03;;;;;;;15.70;4.93;;;12.80;99.90;;;;;;5070477;28;20229;-75
2021/04/17 11:05:31;;;;;;;8.13;5.47;;;12.70;99.90;;;;;;5070210;28;20251;-76
2021/04/17 11:08:00;;;;;;;5.23;4.50;;;11.80;99.90;;;;;;5070237;28;20654;-76
2021/04/17 11:10:32;;;;;;;5.43;4.90;;;12.40;99.90;;;;;;5069908;28;20202;-74
2021/04/17 11:12:59;;;;;;;5.03;4.53;;;12.60;99.90;;;;;;5070568;28;20214;-75
2021/04/17 11:15:29;;;;;;;4.13;3.73;;;12.40;99.90;;;;;;5069615;28;20202;-77
2021/04/17 11:18:13;;;;;;;4.87;4.37;;;12.20;99.90;;;;;;5070137;28;20209;-73
2021/04/17 11:20:52;;;;;;;4.50;3.57;;;12.00;99.90;;;;;;5069733;28;20201;-73
2021/04/17 11:23:33;;;;;;;5.67;3.80;;;12.30;99.90;;;;;;5070611;28;20218;-76
2021/04/17 11:26:01;;;;;;;5.53;4.27;;;12.50;99.90;;;;;;5068409;28;20584;-75
2021/04/17 11:28:27;;;;;;;6.30;4.60;;;12.50;99.90;;;;;;5062783;28;20213;-74
2021/04/17 11:30:55;;;;;;;6.17;4.10;;;12.60;99.90;;;;;;5069679;28;20206;-74
2021/04/17 11:33:23;;;;;;;4.10;3.73;;;13.00;99.90;;;;;;5069913;28;20217;-72
2021/04/17 11:35:50;;;;;;;6.90;4.10;;;13.30;99.90;;;;;;5069744;28;20622;-76
2021/04/17 11:38:17;;;;;;;4.07;3.67;;;13.40;99.90;;;;;;5070196;28;20229;-75
2021/04/17 11:40:43;;;;;;;4.37;3.77;;;13.80;99.90;;;;;;5059320;28;20305;-73
2021/04/17 11:43:10;;;;;;;9.50;4.23;;;14.10;99.90;;;;;;5066935;28;20230;-74
2021/04/17 11:45:37;;;;;;;3.67;3.00;;;13.60;99.90;;;;;;5073082;28;20206;-73
2021/04/17 11:48:04;;;;;;;4.33;3.93;;;13.20;99.90;;;;;;5073588;28;20218;-75
2021/04/17 11:50:31;;;;;;;4.57;3.87;;;12.90;99.90;;;;;;5070717;28;20293;-75
2021/04/17 11:52:57;;;;;;;5.03;4.50;;;13.30;99.90;;;;;;5062338;28;20579;-74
2021/04/17 11:55:24;;;;;;;7.63;4.47;;;13.40;99.90;;;;;;5070732;28;20241;-75
2021/04/17 11:57:50;;;;;;;5.03;3.93;;;13.20;99.90;;;;;;5070608;28;20199;-74
2021/04/17 12:00:19;;;;;;;4.93;4.23;;;12.50;99.90;;;;;;5071337;28;20206;-77
2021/04/17 12:02:46;;;;;;;6.63;3.50;;;12.50;99.90;;;;;;5064953;28;20643;-74
2021/04/17 12:05:13;;;;;;;4.37;3.40;;;12.70;99.90;;;;;;5072563;28;20210;-75
2021/04/17 12:07:39;;;;;;;5.27;3.83;;;13.00;99.90;;;;;;5072245;28;20586;-75
2021/04/17 12:10:07;;;;;;;4.23;3.93;;;13.20;99.90;;;;;;5072650;28;20293;-76
2021/04/17 12:12:34;;;;;;;4.30;4.00;;;12.80;99.90;;;;;;5072613;28;20225;-75
2021/04/17 12:15:01;;;;;;;3.90;3.60;;;12.90;99.90;;;;;;5072816;28;20206;-74
2021/04/17 12:17:28;;;;;;;3.83;3.50;;;13.30;99.90;;;;;;5072425;28;20293;-73
2021/04/17 12:19:56;;;;;;;7.33;4.67;;;13.60;99.90;;;;;;5072759;28;20209;-70
2021/04/17 12:22:23;;;;;;;4.50;4.10;;;14.20;99.90;;;;;;5070638;28;20256;-71
2021/04/17 12:24:49;;;;;;;10.10;3.97;;;14.30;99.90;;;;;;5072350;28;20206;-70
2021/04/17 12:27:15;;;;;;;4.10;3.53;;;13.60;99.90;;;;;;5068436;28;20213;-72
2021/04/17 12:29:42;;;;;;;3.47;3.17;;;13.20;99.90;;;;;;5071951;28;20214;-72
2021/04/17 12:32:08;;;;;;;4.77;3.17;;;13.20;99.90;;;;;;5072090;28;20259;-70
2021/04/17 12:34:36;;;;;;;3.57;3.27;;;12.70;99.90;;;;;;5071865;28;20210;-72
2021/04/17 12:37:02;;;;;;;4.77;3.77;;;12.30;99.90;;;;;;5067694;28;20211;-72
2021/04/17 12:39:29;;;;;;;3.90;3.60;;;12.80;99.90;;;;;;5060560;28;20205;-72
2021/04/17 12:41:55;;;;;;;4.87;4.00;;;13.70;99.90;;;;;;5066054;28;20203;-72
2021/04/17 12:44:22;;;;;;;7.97;3.40;;;13.30;99.90;;;;;;5062208;28;20608;-72
2021/04/17 12:46:48;;;;;;;4.60;3.37;;;12.70;99.90;;;;;;5072091;28;20198;-77
2021/04/17 12:49:15;;;;;;;3.57;3.27;;;12.60;99.90;;;;;;5070267;28;20651;-77
2021/04/17 12:51:42;;;;;;;4.63;3.43;;;12.60;99.90;;;;;;5071934;28;20666;-76
2021/04/17 12:54:09;;;;;;;4.10;3.73;;;13.20;99.90;;;;;;5067282;28;20678;-74
2021/04/17 12:56:35;;;;;;;3.37;3.10;;;13.80;99.90;;;;;;5066510;28;20252;-72
2021/04/17 12:59:02;;;;;;;4.60;3.37;;;14.00;99.90;;;;;;5072108;28;20202;-71
2021/04/17 13:01:29;;;;;;;5.27;3.80;;;14.10;99.90;;;;;;5071490;28;20202;-74
2021/04/17 13:03:56;;;;;;;6.90;3.67;;;13.60;99.90;;;;;;5072051;28;20678;-73